sensor_id;sensor_type;location;lat;lon;timestamp;noise_LAeq;noise_LA_min;noise_LA_max;noise_LA01;noise_LA95
60116;Laerm;62818;49.394;8.686;2023-03-04T00:00:55;91.27;41.53;109.07;;
60116;Laerm;62818;49.394;8.686;2023-03-04T00:01:56;91.54;42.98;108.97;;
60116;Laerm;62818;49.394;8.686;2023-03-04T00:02:56;90.71;41.61;108.81;;
60116;Laerm;62818;49.394;8.686;2023-03-04T00:03:57;91.49;42.03;108.92;;
60116;Laerm;62818;49.394;8.686;2023-03-04T00:04:57;91.38;39.92;108.93;;
60116;Laerm;62818;49.394;8.686;2023-03-04T00:05:58;91.57;42.03;109.09;;
60116;Laerm;62818;49.394;8.686;2023-03-04T00:06:58;91.21;40.80;108.79;;
60116;Laerm;62818;49.394;8.686;2023-03-04T00:07:59;91.20;40.89;108.92;;
60116;Laerm;62818;49.394;8.686;2023-03-04T00:09:00;91.65;41.30;109.03;;
60116;Laerm;62818;49.394;8.686;2023-03-04T00:10:00;91.35;40.62;108.93;;
60116;Laerm;62818;49.394;8.686;2023-03-04T00:11:01;90.93;41.53;108.79;;
60116;Laerm;62818;49.394;8.686;2023-03-04T00:12:01;91.36;44.62;109.06;;
60116;Laerm;62818;49.394;8.686;2023-03-04T00:13:02;91.51;40.71;108.90;;
60116;Laerm;62818;49.394;8.686;2023-03-04T00:14:02;91.29;40.98;108.69;;
60116;Laerm;62818;49.394;8.686;2023-03-04T00:15:03;91.43;42.35;108.93;;
60116;Laerm;62818;49.394;8.686;2023-03-04T00:16:04;91.88;41.22;109.03;;
60116;Laerm;62818;49.394;8.686;2023-03-04T00:17:05;91.54;40.33;109.09;;
60116;Laerm;62818;49.394;8.686;2023-03-04T00:18:06;91.35;41.61;108.98;;
60116;Laerm;62818;49.394;8.686;2023-03-04T00:19:06;91.46;41.53;108.96;;
60116;Laerm;62818;49.394;8.686;2023-03-04T00:20:08;91.35;41.53;108.75;;
60116;Laerm;62818;49.394;8.686;2023-03-04T00:21:08;89.86;42.16;109.00;;
60116;Laerm;62818;49.394;8.686;2023-03-04T00:22:09;91.51;41.61;109.16;;
60116;Laerm;62818;49.394;8.686;2023-03-04T00:23:09;90.79;42.53;108.93;;
60116;Laerm;62818;49.394;8.686;2023-03-04T00:24:10;92.02;40.98;109.03;;
60116;Laerm;62818;49.394;8.686;2023-03-04T00:25:10;91.97;41.82;108.92;;
60116;Laerm;62818;49.394;8.686;2023-03-04T00:26:11;91.90;42.13;109.05;;
60116;Laerm;62818;49.394;8.686;2023-03-04T00:27:12;91.85;43.09;108.93;;
60116;Laerm;62818;49.394;8.686;2023-03-04T00:28:13;91.37;42.22;109.11;;
60116;Laerm;62818;49.394;8.686;2023-03-04T00:29:13;91.68;42.93;108.94;;
60116;Laerm;62818;49.394;8.686;2023-03-04T00:30:14;91.58;41.82;109.03;;
60116;Laerm;62818;49.394;8.686;2023-03-04T00:31:14;91.42;42.29;108.76;;
60116;Laerm;62818;49.394;8.686;2023-03-04T00:32:15;91.57;43.04;108.75;;
60116;Laerm;62818;49.394;8.686;2023-03-04T00:33:17;91.03;42.22;109.15;;
60116;Laerm;62818;49.394;8.686;2023-03-04T00:34:18;91.48;44.12;109.02;;
60116;Laerm;62818;49.394;8.686;2023-03-04T00:35:19;91.64;42.88;108.99;;
60116;Laerm;62818;49.394;8.686;2023-03-04T00:36:19;91.64;42.03;108.94;;
60116;Laerm;62818;49.394;8.686;2023-03-04T00:37:20;91.09;41.68;108.98;;
60116;Laerm;62818;49.394;8.686;2023-03-04T00:38:20;91.05;40.23;108.95;;
60116;Laerm;62818;49.394;8.686;2023-03-04T00:39:21;91.35;41.53;109.04;;
60116;Laerm;62818;49.394;8.686;2023-03-04T00:40:21;91.51;43.24;108.94;;
60116;Laerm;62818;49.394;8.686;2023-03-04T00:41:21;91.43;42.71;108.97;;
60116;Laerm;62818;49.394;8.686;2023-03-04T00:42:22;90.86;41.30;108.83;;
60116;Laerm;62818;49.394;8.686;2023-03-04T00:43:23;91.52;41.82;109.08;;
60116;Laerm;62818;49.394;8.686;2023-03-04T00:44:23;91.34;40.71;108.97;;
60116;Laerm;62818;49.394;8.686;2023-03-04T00:45:24;91.33;41.82;108.96;;
60116;Laerm;62818;49.394;8.686;2023-03-04T00:46:24;91.61;40.53;108.98;;
60116;Laerm;62818;49.394;8.686;2023-03-04T00:47:25;92.07;40.33;109.13;;
60116;Laerm;62818;49.394;8.686;2023-03-04T00:48:25;91.63;42.29;109.25;;
60116;Laerm;62818;49.394;8.686;2023-03-04T00:49:26;91.64;42.41;109.13;;
60116;Laerm;62818;49.394;8.686;2023-03-04T00:50:26;91.74;42.41;109.15;;
60116;Laerm;62818;49.394;8.686;2023-03-04T00:51:27;92.04;41.06;109.06;;
60116;Laerm;62818;49.394;8.686;2023-03-04T00:52:27;91.64;40.71;108.95;;
60116;Laerm;62818;49.394;8.686;2023-03-04T00:53:28;91.49;42.88;108.92;;
60116;Laerm;62818;49.394;8.686;2023-03-04T00:54:28;91.07;43.34;108.91;;
60116;Laerm;62818;49.394;8.686;2023-03-04T00:55:29;91.07;42.09;108.96;;
60116;Laerm;62818;49.394;8.686;2023-03-04T00:56:29;92.15;41.53;109.09;;
60116;Laerm;62818;49.394;8.686;2023-03-04T00:57:30;91.49;41.30;109.16;;
60116;Laerm;62818;49.394;8.686;2023-03-04T00:58:30;91.67;41.14;108.96;;
60116;Laerm;62818;49.394;8.686;2023-03-04T00:59:31;91.06;41.96;108.92;;
60116;Laerm;62818;49.394;8.686;2023-03-04T01:00:32;91.84;39.08;109.12;;
60116;Laerm;62818;49.394;8.686;2023-03-04T01:01:33;91.53;40.62;109.19;;
60116;Laerm;62818;49.394;8.686;2023-03-04T01:02:33;90.39;42.03;109.09;;
60116;Laerm;62818;49.394;8.686;2023-03-04T01:03:34;91.16;42.65;109.23;;
60116;Laerm;62818;49.394;8.686;2023-03-04T01:04:35;91.63;43.14;109.12;;
60116;Laerm;62818;49.394;8.686;2023-03-04T01:05:36;92.07;42.16;109.24;;
60116;Laerm;62818;49.394;8.686;2023-03-04T01:06:36;91.61;40.33;109.10;;
60116;Laerm;62818;49.394;8.686;2023-03-04T01:07:37;91.77;39.70;109.20;;
60116;Laerm;62818;49.394;8.686;2023-03-04T01:08:38;92.37;42.41;109.14;;
60116;Laerm;62818;49.394;8.686;2023-03-04T01:09:39;91.70;40.80;109.15;;
60116;Laerm;62818;49.394;8.686;2023-03-04T01:10:39;91.71;40.43;108.84;;
60116;Laerm;62818;49.394;8.686;2023-03-04T01:12:17;90.04;39.81;109.12;;
60116;Laerm;62818;49.394;8.686;2023-03-04T01:13:27;90.97;44.11;109.05;;
60116;Laerm;62818;49.394;8.686;2023-03-04T01:14:28;91.77;44.19;109.22;;
60116;Laerm;62818;49.394;8.686;2023-03-04T01:15:28;91.56;43.93;109.04;;
60116;Laerm;62818;49.394;8.686;2023-03-04T01:16:29;91.87;44.23;109.35;;
60116;Laerm;62818;49.394;8.686;2023-03-04T01:17:29;91.82;42.93;109.07;;
60116;Laerm;62818;49.394;8.686;2023-03-04T01:18:30;91.63;45.33;109.13;;
60116;Laerm;62818;49.394;8.686;2023-03-04T01:19:30;91.16;44.43;108.98;;
60116;Laerm;62818;49.394;8.686;2023-03-04T01:20:31;91.76;44.35;109.09;;
60116;Laerm;62818;49.394;8.686;2023-03-04T01:21:31;91.76;43.99;109.01;;
60116;Laerm;62818;49.394;8.686;2023-03-04T01:22:32;91.71;44.39;109.06;;
60116;Laerm;62818;49.394;8.686;2023-03-04T01:23:33;92.06;44.07;109.12;;
60116;Laerm;62818;49.394;8.686;2023-03-04T01:24:33;91.66;44.35;109.20;;
60116;Laerm;62818;49.394;8.686;2023-03-04T01:25:34;91.39;44.69;109.11;;
60116;Laerm;62818;49.394;8.686;2023-03-04T01:26:34;91.18;44.51;108.94;;
60116;Laerm;62818;49.394;8.686;2023-03-04T01:27:35;91.76;44.47;109.00;;
60116;Laerm;62818;49.394;8.686;2023-03-04T01:28:35;91.81;45.17;109.23;;
60116;Laerm;62818;49.394;8.686;2023-03-04T01:29:36;91.79;44.90;108.98;;
60116;Laerm;62818;49.394;8.686;2023-03-04T01:30:36;92.08;44.73;109.13;;
60116;Laerm;62818;49.394;8.686;2023-03-04T01:31:37;91.70;44.51;109.18;;
60116;Laerm;62818;49.394;8.686;2023-03-04T01:32:37;90.92;44.35;109.16;;
60116;Laerm;62818;49.394;8.686;2023-03-04T01:33:38;91.69;44.39;109.16;;
60116;Laerm;62818;49.394;8.686;2023-03-04T01:34:38;91.93;44.35;109.09;;
60116;Laerm;62818;49.394;8.686;2023-03-04T01:35:39;91.81;44.97;109.19;;
60116;Laerm;62818;49.394;8.686;2023-03-04T01:36:40;92.25;44.51;109.19;;
60116;Laerm;62818;49.394;8.686;2023-03-04T01:37:40;91.24;44.83;109.09;;
60116;Laerm;62818;49.394;8.686;2023-03-04T01:38:40;91.81;44.94;109.14;;
60116;Laerm;62818;49.394;8.686;2023-03-04T01:39:41;91.88;44.62;109.31;;
60116;Laerm;62818;49.394;8.686;2023-03-04T01:40:41;91.76;44.76;108.92;;
60116;Laerm;62818;49.394;8.686;2023-03-04T01:41:42;91.60;44.39;109.24;;
60116;Laerm;62818;49.394;8.686;2023-03-04T01:42:44;91.29;44.31;109.16;;
60116;Laerm;62818;49.394;8.686;2023-03-04T01:43:44;50.51;44.73;61.66;;
60116;Laerm;62818;49.394;8.686;2023-03-04T01:44:46;90.93;43.99;109.02;;
60116;Laerm;62818;49.394;8.686;2023-03-04T01:45:49;92.08;44.03;109.15;;
60116;Laerm;62818;49.394;8.686;2023-03-04T01:46:53;91.48;43.90;109.04;;
60116;Laerm;62818;49.394;8.686;2023-03-04T01:47:54;90.40;44.07;109.07;;
60116;Laerm;62818;49.394;8.686;2023-03-04T01:48:55;90.30;44.15;108.70;;
60116;Laerm;62818;49.394;8.686;2023-03-04T01:49:57;92.00;43.99;109.08;;
60116;Laerm;62818;49.394;8.686;2023-03-04T01:50:58;90.35;44.03;109.12;;
60116;Laerm;62818;49.394;8.686;2023-03-04T01:52:02;91.48;44.23;109.06;;
60116;Laerm;62818;49.394;8.686;2023-03-04T01:53:03;91.61;44.31;109.08;;
60116;Laerm;62818;49.394;8.686;2023-03-04T01:54:03;91.80;43.81;108.83;;
60116;Laerm;62818;49.394;8.686;2023-03-04T01:55:14;91.21;43.94;109.22;;
60116;Laerm;62818;49.394;8.686;2023-03-04T01:56:22;91.85;44.23;109.11;;
60116;Laerm;62818;49.394;8.686;2023-03-04T01:57:25;92.03;44.03;109.07;;
60116;Laerm;62818;49.394;8.686;2023-03-04T01:58:29;91.58;43.90;109.20;;
60116;Laerm;62818;49.394;8.686;2023-03-04T01:59:30;91.82;45.42;109.15;;
60116;Laerm;62818;49.394;8.686;2023-03-04T02:00:33;91.81;45.27;109.22;;
60116;Laerm;62818;49.394;8.686;2023-03-04T02:01:34;92.37;45.04;109.06;;
60116;Laerm;62818;49.394;8.686;2023-03-04T02:02:35;91.83;44.43;109.24;;
60116;Laerm;62818;49.394;8.686;2023-03-04T02:03:36;91.71;44.58;108.96;;
60116;Laerm;62818;49.394;8.686;2023-03-04T02:04:39;91.58;44.62;109.08;;
60116;Laerm;62818;49.394;8.686;2023-03-04T02:05:45;90.98;45.07;108.86;;
60116;Laerm;62818;49.394;8.686;2023-03-04T02:06:48;91.06;44.98;109.25;;
60116;Laerm;62818;49.394;8.686;2023-03-04T02:07:52;92.11;44.62;109.13;;
60116;Laerm;62818;49.394;8.686;2023-03-04T02:08:54;91.61;44.80;109.14;;
60116;Laerm;62818;49.394;8.686;2023-03-04T02:09:54;91.87;44.62;109.11;;
60116;Laerm;62818;49.394;8.686;2023-03-04T02:10:55;91.83;45.01;109.22;;
60116;Laerm;62818;49.394;8.686;2023-03-04T02:11:56;91.85;45.11;109.01;;
60116;Laerm;62818;49.394;8.686;2023-03-04T02:12:59;92.21;45.01;109.14;;
60116;Laerm;62818;49.394;8.686;2023-03-04T02:14:01;91.87;45.27;109.15;;
60116;Laerm;62818;49.394;8.686;2023-03-04T02:15:02;90.97;44.65;109.05;;
60116;Laerm;62818;49.394;8.686;2023-03-04T02:16:03;91.92;44.15;109.10;;
60116;Laerm;62818;49.394;8.686;2023-03-04T02:17:11;90.92;37.52;109.08;;
60116;Laerm;62818;49.394;8.686;2023-03-04T02:18:19;91.49;40.43;109.19;;
60116;Laerm;62818;49.394;8.686;2023-03-04T02:20:03;89.90;40.89;108.99;;
60116;Laerm;62818;49.394;8.686;2023-03-04T02:22:12;92.25;41.14;109.24;;
60116;Laerm;62818;49.394;8.686;2023-03-04T02:24:35;91.28;42.29;109.34;;
60116;Laerm;62818;49.394;8.686;2023-03-04T02:27:09;90.22;40.03;108.99;;
60116;Laerm;62818;49.394;8.686;2023-03-04T02:28:10;92.31;43.19;109.28;;
60116;Laerm;62818;49.394;8.686;2023-03-04T02:29:13;92.25;41.06;109.38;;
60116;Laerm;62818;49.394;8.686;2023-03-04T02:30:20;92.57;42.09;109.30;;
60116;Laerm;62818;49.394;8.686;2023-03-04T02:31:32;91.53;41.82;109.25;;
60116;Laerm;62818;49.394;8.686;2023-03-04T02:32:33;92.22;41.68;109.25;;
60116;Laerm;62818;49.394;8.686;2023-03-04T02:33:34;92.26;42.98;109.00;;
60116;Laerm;62818;49.394;8.686;2023-03-04T02:34:35;92.24;43.49;109.15;;
60116;Laerm;62818;49.394;8.686;2023-03-04T02:35:36;92.00;43.63;109.21;;
60116;Laerm;62818;49.394;8.686;2023-03-04T02:36:37;91.30;41.30;109.19;;
60116;Laerm;62818;49.394;8.686;2023-03-04T02:37:39;92.39;41.75;109.14;;
60116;Laerm;62818;49.394;8.686;2023-03-04T02:38:40;91.56;41.68;109.05;;
60116;Laerm;62818;49.394;8.686;2023-03-04T02:39:43;91.97;42.03;108.98;;
60116;Laerm;62818;49.394;8.686;2023-03-04T02:40:48;91.61;42.09;109.25;;
60116;Laerm;62818;49.394;8.686;2023-03-04T02:41:53;91.98;43.90;109.13;;
60116;Laerm;62818;49.394;8.686;2023-03-04T02:42:54;92.22;43.34;109.27;;
60116;Laerm;62818;49.394;8.686;2023-03-04T02:43:57;91.08;44.87;109.12;;
60116;Laerm;62818;49.394;8.686;2023-03-04T02:44:59;91.88;44.15;109.10;;
60116;Laerm;62818;49.394;8.686;2023-03-04T02:46:00;91.77;44.54;108.84;;
60116;Laerm;62818;49.394;8.686;2023-03-04T02:47:03;91.67;43.90;109.17;;
60116;Laerm;62818;49.394;8.686;2023-03-04T02:48:06;91.12;43.90;109.26;;
60116;Laerm;62818;49.394;8.686;2023-03-04T02:49:07;92.05;44.73;109.14;;
60116;Laerm;62818;49.394;8.686;2023-03-04T02:50:08;91.61;44.65;108.99;;
60116;Laerm;62818;49.394;8.686;2023-03-04T02:51:09;92.30;43.77;109.06;;
60116;Laerm;62818;49.394;8.686;2023-03-04T02:52:20;91.16;43.58;109.13;;
60116;Laerm;62818;49.394;8.686;2023-03-04T02:53:22;91.41;43.77;109.12;;
60116;Laerm;62818;49.394;8.686;2023-03-04T02:54:24;92.21;43.86;109.13;;
60116;Laerm;62818;49.394;8.686;2023-03-04T02:55:25;92.35;44.11;109.38;;
60116;Laerm;62818;49.394;8.686;2023-03-04T02:56:25;91.34;43.77;109.31;;
60116;Laerm;62818;49.394;8.686;2023-03-04T02:57:26;91.91;43.81;109.05;;
60116;Laerm;62818;49.394;8.686;2023-03-04T02:58:26;92.05;40.89;109.27;;
60116;Laerm;62818;49.394;8.686;2023-03-04T02:59:27;91.85;41.41;109.25;;
60116;Laerm;62818;49.394;8.686;2023-03-04T03:00:29;91.99;40.03;109.22;;
60116;Laerm;62818;49.394;8.686;2023-03-04T03:01:29;91.88;41.06;109.22;;
60116;Laerm;62818;49.394;8.686;2023-03-04T03:02:30;91.93;40.33;109.42;;
60116;Laerm;62818;49.394;8.686;2023-03-04T03:03:30;91.89;41.82;109.15;;
60116;Laerm;62818;49.394;8.686;2023-03-04T03:04:31;91.82;41.14;109.29;;
60116;Laerm;62818;49.394;8.686;2023-03-04T03:05:35;92.27;41.96;109.38;;
60116;Laerm;62818;49.394;8.686;2023-03-04T03:06:36;92.50;42.98;109.38;;
60116;Laerm;62818;49.394;8.686;2023-03-04T03:07:36;91.75;42.35;109.35;;
60116;Laerm;62818;49.394;8.686;2023-03-04T03:08:37;91.94;42.59;109.21;;
60116;Laerm;62818;49.394;8.686;2023-03-04T03:09:38;91.94;42.41;109.31;;
60116;Laerm;62818;49.394;8.686;2023-03-04T03:10:38;92.09;40.43;109.26;;
60116;Laerm;62818;49.394;8.686;2023-03-04T03:11:39;91.98;42.29;109.27;;
60116;Laerm;62818;49.394;8.686;2023-03-04T03:12:39;92.12;42.29;109.31;;
60116;Laerm;62818;49.394;8.686;2023-03-04T03:13:40;92.00;41.61;109.23;;
60116;Laerm;62818;49.394;8.686;2023-03-04T03:14:40;91.43;41.22;109.35;;
60116;Laerm;62818;49.394;8.686;2023-03-04T03:15:41;92.05;35.94;109.30;;
60116;Laerm;62818;49.394;8.686;2023-03-04T03:16:41;91.88;40.80;109.17;;
60116;Laerm;62818;49.394;8.686;2023-03-04T03:17:42;91.82;41.22;109.21;;
60116;Laerm;62818;49.394;8.686;2023-03-04T03:18:43;91.81;41.14;109.24;;
60116;Laerm;62818;49.394;8.686;2023-03-04T03:19:43;91.77;41.06;109.21;;
60116;Laerm;62818;49.394;8.686;2023-03-04T03:20:44;92.20;40.89;109.28;;
60116;Laerm;62818;49.394;8.686;2023-03-04T03:21:44;92.08;41.06;109.29;;
60116;Laerm;62818;49.394;8.686;2023-03-04T03:22:46;92.06;41.30;109.44;;
60116;Laerm;62818;49.394;8.686;2023-03-04T03:23:46;92.49;41.22;109.44;;
60116;Laerm;62818;49.394;8.686;2023-03-04T03:24:47;92.06;40.13;109.22;;
60116;Laerm;62818;49.394;8.686;2023-03-04T03:25:47;92.06;40.33;109.29;;
60116;Laerm;62818;49.394;8.686;2023-03-04T03:26:48;91.37;40.53;109.40;;
60116;Laerm;62818;49.394;8.686;2023-03-04T03:27:48;92.02;40.89;109.25;;
60116;Laerm;62818;49.394;8.686;2023-03-04T03:28:51;91.74;40.89;109.43;;
60116;Laerm;62818;49.394;8.686;2023-03-04T03:29:52;90.67;41.14;109.09;;
60116;Laerm;62818;49.394;8.686;2023-03-04T03:30:53;91.83;42.03;109.33;;
60116;Laerm;62818;49.394;8.686;2023-03-04T03:31:54;91.89;42.22;109.30;;
60116;Laerm;62818;49.394;8.686;2023-03-04T03:32:56;90.69;41.68;109.05;;
60116;Laerm;62818;49.394;8.686;2023-03-04T03:33:56;91.42;42.82;109.16;;
60116;Laerm;62818;49.394;8.686;2023-03-04T03:34:57;92.26;43.58;109.31;;
60116;Laerm;62818;49.394;8.686;2023-03-04T03:35:57;92.10;43.58;109.08;;
60116;Laerm;62818;49.394;8.686;2023-03-04T03:36:58;91.45;43.77;109.24;;
60116;Laerm;62818;49.394;8.686;2023-03-04T03:37:58;92.13;43.99;109.32;;
60116;Laerm;62818;49.394;8.686;2023-03-04T03:38:58;92.07;43.86;109.31;;
60116;Laerm;62818;49.394;8.686;2023-03-04T03:39:59;92.11;44.11;109.35;;
60116;Laerm;62818;49.394;8.686;2023-03-04T03:41:00;92.52;43.54;109.37;;
60116;Laerm;62818;49.394;8.686;2023-03-04T03:42:00;91.45;41.30;109.30;;
60116;Laerm;62818;49.394;8.686;2023-03-04T03:43:01;92.05;32.93;109.48;;
60116;Laerm;62818;49.394;8.686;2023-03-04T03:44:01;92.11;39.34;109.24;;
60116;Laerm;62818;49.394;8.686;2023-03-04T03:45:02;91.35;31.68;108.95;;
60116;Laerm;62818;49.394;8.686;2023-03-04T03:46:03;92.14;40.79;109.42;;
60116;Laerm;62818;49.394;8.686;2023-03-04T03:47:03;91.54;44.39;109.43;;
60116;Laerm;62818;49.394;8.686;2023-03-04T03:48:04;91.73;37.70;109.28;;
60116;Laerm;62818;49.394;8.686;2023-03-04T03:49:05;91.34;44.15;109.12;;
60116;Laerm;62818;49.394;8.686;2023-03-04T03:50:05;91.44;44.15;109.34;;
60116;Laerm;62818;49.394;8.686;2023-03-04T03:51:06;92.11;44.42;109.31;;
60116;Laerm;62818;49.394;8.686;2023-03-04T03:52:07;91.37;44.51;109.17;;
60116;Laerm;62818;49.394;8.686;2023-03-04T03:53:08;91.82;45.27;109.22;;
60116;Laerm;62818;49.394;8.686;2023-03-04T03:54:09;91.54;45.45;109.13;;
60116;Laerm;62818;49.394;8.686;2023-03-04T03:55:09;91.94;44.76;109.28;;
60116;Laerm;62818;49.394;8.686;2023-03-04T03:56:10;92.05;44.27;109.14;;
60116;Laerm;62818;49.394;8.686;2023-03-04T03:57:10;92.02;44.27;109.38;;
60116;Laerm;62818;49.394;8.686;2023-03-04T03:58:11;90.70;44.31;109.26;;
60116;Laerm;62818;49.394;8.686;2023-03-04T03:59:11;92.08;44.43;109.13;;
60116;Laerm;62818;49.394;8.686;2023-03-04T04:00:13;91.29;44.62;109.18;;
60116;Laerm;62818;49.394;8.686;2023-03-04T04:01:13;91.90;44.65;109.26;;
60116;Laerm;62818;49.394;8.686;2023-03-04T04:02:14;91.98;44.80;109.18;;
60116;Laerm;62818;49.394;8.686;2023-03-04T04:03:15;91.81;44.19;109.11;;
60116;Laerm;62818;49.394;8.686;2023-03-04T04:04:16;92.61;44.03;109.29;;
60116;Laerm;62818;49.394;8.686;2023-03-04T04:05:16;92.42;44.11;109.39;;
60116;Laerm;62818;49.394;8.686;2023-03-04T04:06:17;92.03;44.73;109.26;;
60116;Laerm;62818;49.394;8.686;2023-03-04T04:07:18;92.10;45.30;109.34;;
60116;Laerm;62818;49.394;8.686;2023-03-04T04:08:18;92.52;44.47;109.51;;
60116;Laerm;62818;49.394;8.686;2023-03-04T04:09:19;91.34;44.87;109.23;;
60116;Laerm;62818;49.394;8.686;2023-03-04T04:10:20;92.25;44.73;109.44;;
60116;Laerm;62818;49.394;8.686;2023-03-04T04:11:21;92.65;45.01;109.48;;
60116;Laerm;62818;49.394;8.686;2023-03-04T04:12:22;92.26;44.69;109.31;;
60116;Laerm;62818;49.394;8.686;2023-03-04T04:13:23;92.76;45.27;109.37;;
60116;Laerm;62818;49.394;8.686;2023-03-04T04:14:23;92.60;45.23;109.23;;
60116;Laerm;62818;49.394;8.686;2023-03-04T04:15:23;91.98;45.30;109.25;;
60116;Laerm;62818;49.394;8.686;2023-03-04T04:16:24;91.76;45.51;109.14;;
60116;Laerm;62818;49.394;8.686;2023-03-04T04:17:24;92.47;45.33;109.30;;
60116;Laerm;62818;49.394;8.686;2023-03-04T04:18:25;92.16;45.72;109.34;;
60116;Laerm;62818;49.394;8.686;2023-03-04T04:19:26;92.14;46.57;109.45;;
60116;Laerm;62818;49.394;8.686;2023-03-04T04:20:26;91.44;40.03;109.02;;
60116;Laerm;62818;49.394;8.686;2023-03-04T04:21:27;92.21;43.29;109.41;;
60116;Laerm;62818;49.394;8.686;2023-03-04T04:22:27;92.05;42.22;109.41;;
60116;Laerm;62818;49.394;8.686;2023-03-04T04:23:28;92.26;42.88;109.39;;
60116;Laerm;62818;49.394;8.686;2023-03-04T04:24:28;92.12;42.16;109.43;;
60116;Laerm;62818;49.394;8.686;2023-03-04T04:25:29;91.56;41.89;109.31;;
60116;Laerm;62818;49.394;8.686;2023-03-04T04:26:29;92.54;42.82;109.52;;
60116;Laerm;62818;49.394;8.686;2023-03-04T04:27:30;92.06;42.35;109.33;;
60116;Laerm;62818;49.394;8.686;2023-03-04T04:28:31;91.98;42.76;109.43;;
60116;Laerm;62818;49.394;8.686;2023-03-04T04:29:31;92.54;43.04;109.45;;
60116;Laerm;62818;49.394;8.686;2023-03-04T04:30:32;92.24;43.24;109.44;;
60116;Laerm;62818;49.394;8.686;2023-03-04T04:31:33;92.14;42.88;109.48;;
60116;Laerm;62818;49.394;8.686;2023-03-04T04:32:34;91.43;43.09;109.39;;
60116;Laerm;62818;49.394;8.686;2023-03-04T04:33:36;92.80;43.09;109.37;;
60116;Laerm;62818;49.394;8.686;2023-03-04T04:34:36;93.03;42.53;109.42;;
60116;Laerm;62818;49.394;8.686;2023-03-04T04:35:37;92.66;41.14;109.13;;
60116;Laerm;62818;49.394;8.686;2023-03-04T04:36:40;92.01;43.04;109.37;;
60116;Laerm;62818;49.394;8.686;2023-03-04T04:37:41;92.18;42.88;109.32;;
60116;Laerm;62818;49.394;8.686;2023-03-04T04:38:42;92.06;43.86;109.49;;
60116;Laerm;62818;49.394;8.686;2023-03-04T04:39:43;92.26;43.63;109.36;;
60116;Laerm;62818;49.394;8.686;2023-03-04T04:40:43;92.09;43.54;109.46;;
60116;Laerm;62818;49.394;8.686;2023-03-04T04:41:45;91.76;43.49;109.46;;
60116;Laerm;62818;49.394;8.686;2023-03-04T04:42:46;92.16;43.81;109.30;;
60116;Laerm;62818;49.394;8.686;2023-03-04T04:43:46;92.00;43.24;109.41;;
60116;Laerm;62818;49.394;8.686;2023-03-04T04:44:47;92.40;43.94;109.30;;
60116;Laerm;62818;49.394;8.686;2023-03-04T04:45:47;92.34;43.58;109.36;;
60116;Laerm;62818;49.394;8.686;2023-03-04T04:46:48;92.36;43.68;109.33;;
60116;Laerm;62818;49.394;8.686;2023-03-04T04:47:48;91.64;43.77;109.32;;
60116;Laerm;62818;49.394;8.686;2023-03-04T04:48:49;91.48;44.65;109.44;;
60116;Laerm;62818;49.394;8.686;2023-03-04T04:49:49;92.52;44.69;109.21;;
60116;Laerm;62818;49.394;8.686;2023-03-04T04:50:54;91.67;43.44;109.40;;
60116;Laerm;62818;49.394;8.686;2023-03-04T04:51:55;92.63;44.23;109.42;;
60116;Laerm;62818;49.394;8.686;2023-03-04T04:52:56;92.40;45.48;109.35;;
60116;Laerm;62818;49.394;8.686;2023-03-04T04:53:58;91.85;43.54;109.41;;
60116;Laerm;62818;49.394;8.686;2023-03-04T04:54:59;92.10;44.56;109.45;;
60116;Laerm;62818;49.394;8.686;2023-03-04T04:56:07;92.07;44.35;109.30;;
60116;Laerm;62818;49.394;8.686;2023-03-04T04:57:08;92.52;44.97;109.38;;
60116;Laerm;62818;49.394;8.686;2023-03-04T04:58:09;92.38;44.08;109.33;;
60116;Laerm;62818;49.394;8.686;2023-03-04T04:59:09;91.91;44.69;109.23;;
60116;Laerm;62818;49.394;8.686;2023-03-04T05:00:10;92.38;44.62;109.46;;
60116;Laerm;62818;49.394;8.686;2023-03-04T05:01:12;91.38;44.58;109.22;;
60116;Laerm;62818;49.394;8.686;2023-03-04T05:02:13;92.76;45.20;109.42;;
60116;Laerm;62818;49.394;8.686;2023-03-04T05:03:14;91.83;44.73;109.21;;
60116;Laerm;62818;49.394;8.686;2023-03-04T05:04:14;91.60;45.04;109.13;;
60116;Laerm;62818;49.394;8.686;2023-03-04T05:05:15;92.22;44.73;109.24;;
60116;Laerm;62818;49.394;8.686;2023-03-04T05:06:15;91.78;45.51;109.41;;
60116;Laerm;62818;49.394;8.686;2023-03-04T05:07:16;92.53;45.72;109.32;;
60116;Laerm;62818;49.394;8.686;2023-03-04T05:08:16;92.44;45.01;109.45;;
60116;Laerm;62818;49.394;8.686;2023-03-04T05:09:17;92.00;44.76;109.46;;
60116;Laerm;62818;49.394;8.686;2023-03-04T05:10:18;91.94;44.69;109.47;;
60116;Laerm;62818;49.394;8.686;2023-03-04T05:11:20;92.46;44.54;109.40;;
60116;Laerm;62818;49.394;8.686;2023-03-04T05:12:20;91.84;44.43;109.31;;
60116;Laerm;62818;49.394;8.686;2023-03-04T05:13:21;92.37;45.01;109.47;;
60116;Laerm;62818;49.394;8.686;2023-03-04T05:14:24;92.36;44.43;109.44;;
60116;Laerm;62818;49.394;8.686;2023-03-04T05:15:25;91.54;44.83;109.35;;
60116;Laerm;62818;49.394;8.686;2023-03-04T05:16:25;92.11;45.17;109.44;;
60116;Laerm;62818;49.394;8.686;2023-03-04T05:17:26;92.19;45.72;109.36;;
60116;Laerm;62818;49.394;8.686;2023-03-04T05:18:27;91.99;45.89;109.33;;
60116;Laerm;62818;49.394;8.686;2023-03-04T05:19:28;92.59;45.27;109.43;;
60116;Laerm;62818;49.394;8.686;2023-03-04T05:20:28;92.38;45.60;109.38;;
60116;Laerm;62818;49.394;8.686;2023-03-04T05:21:29;92.40;45.07;109.30;;
60116;Laerm;62818;49.394;8.686;2023-03-04T05:22:29;92.17;44.07;109.33;;
60116;Laerm;62818;49.394;8.686;2023-03-04T05:23:37;92.13;45.33;109.39;;
60116;Laerm;62818;49.394;8.686;2023-03-04T05:24:38;92.15;44.43;109.21;;
60116;Laerm;62818;49.394;8.686;2023-03-04T05:25:38;92.28;44.97;109.34;;
60116;Laerm;62818;49.394;8.686;2023-03-04T05:26:40;92.02;44.73;109.31;;
60116;Laerm;62818;49.394;8.686;2023-03-04T05:27:41;92.10;44.39;109.38;;
60116;Laerm;62818;49.394;8.686;2023-03-04T05:28:41;92.04;43.94;109.50;;
60116;Laerm;62818;49.394;8.686;2023-03-04T05:29:42;92.01;44.27;109.07;;
60116;Laerm;62818;49.394;8.686;2023-03-04T05:30:45;92.00;44.87;109.47;;
60116;Laerm;62818;49.394;8.686;2023-03-04T05:31:46;90.71;44.87;108.96;;
60116;Laerm;62818;49.394;8.686;2023-03-04T05:32:46;91.23;45.69;109.22;;
60116;Laerm;62818;49.394;8.686;2023-03-04T05:33:47;92.50;44.15;109.23;;
60116;Laerm;62818;49.394;8.686;2023-03-04T05:34:47;92.00;45.73;109.36;;
60116;Laerm;62818;49.394;8.686;2023-03-04T05:35:49;91.77;44.47;109.26;;
60116;Laerm;62818;49.394;8.686;2023-03-04T05:36:49;49.13;44.39;57.84;;
60116;Laerm;62818;49.394;8.686;2023-03-04T05:37:50;91.97;45.60;109.05;;
60116;Laerm;62818;49.394;8.686;2023-03-04T05:38:50;92.00;44.76;109.10;;
60116;Laerm;62818;49.394;8.686;2023-03-04T05:39:51;91.75;46.97;109.07;;
60116;Laerm;62818;49.394;8.686;2023-03-04T05:40:57;91.77;44.94;109.26;;
60116;Laerm;62818;49.394;8.686;2023-03-04T05:41:58;91.86;44.54;109.44;;
60116;Laerm;62818;49.394;8.686;2023-03-04T05:42:58;91.94;44.73;109.22;;